Portada
METAR-TAF:

METAR-TAF

Aeroports :

Bonaire, Antilles Neerlandeses

latitud: 12-09N, longitud: 068-17W, altitud: 6 m

Observació

L'informe es va fer fa 2 hores i 8 minuts, a les 11:55 UTC
Vent 3 kt del Sud/Sud-Est, variant entre Est i Sud
Temperatura 28°C
Humitat 79%
Pressió 1009 hPa
Visibilitat 10 km o més
Núvols disperses a una alçada de 1800 ft

METAR: TNCB 181155Z 15003KT 100V190 9999 SCT018 28/24 Q1009

Hora: 10:03 (14:03 UTC)

Pronòstic

L'informe es va fer fa 2 hores i 46 minuts, a les 11:17 UTC
Pronòstic vàlid del 18 a les 12 UTC al 19 a les 18 UTC
Vent 3 kt amb direcció variable
Visibilitat 10 km o més
Núvols disperses a una alçada de 1800 ft

TAF: TNCB 181117Z 1812/1918 VRB03KT 9999 SCT018

Observacions i pronòstics meteorològics de més de 4000 aeroports (METAR i TAF).

Les estacions disponibles són els punts grocs i vermells al mapa.

Posi el ratolí al punt desitjat per veure el nom de l'estació.

Feu clic per veure les observacions i els pronòstics meteorològics.

Per canviar el mapa: feu clic els botons verds amb una creu de color negre per apropar; al botó verd amb un guió per allunyar la imatge; o en les fletxes verdes per a mapes adjacents.


METAR-TAF: